createdAt,value
2019-02-06T00:01:10.149Z,31.80
2019-02-06T00:04:15.543Z,31.57
2019-02-06T00:07:18.808Z,28.70
2019-02-06T00:10:22.239Z,30.57
2019-02-06T00:13:25.737Z,33.47
2019-02-06T00:16:29.586Z,27.90
2019-02-06T00:19:33.087Z,32.87
2019-02-06T00:22:36.531Z,28.47
2019-02-06T00:25:40.326Z,27.43
2019-02-06T00:28:43.857Z,32.20
2019-02-06T00:31:47.261Z,32.37
2019-02-06T00:34:51.081Z,32.53
2019-02-06T00:37:54.503Z,31.87
2019-02-06T00:40:57.958Z,32.50
2019-02-06T00:44:01.775Z,32.67
2019-02-06T00:47:05.196Z,30.80
2019-02-06T00:50:16.196Z,35.07
2019-02-06T00:53:19.643Z,31.67
2019-02-06T00:56:23.057Z,30.03
2019-02-06T00:59:26.495Z,34.20
2019-02-06T01:02:29.933Z,32.57
2019-02-06T01:05:38.601Z,32.77
2019-02-06T01:08:38.637Z,34.87
2019-02-06T01:11:42.045Z,35.10
2019-02-06T01:14:45.521Z,32.27
2019-02-06T01:17:48.933Z,33.83
2019-02-06T01:20:52.756Z,31.33
2019-02-06T01:23:56.193Z,31.73
2019-02-06T01:26:59.616Z,33.60
2019-02-06T01:30:06.612Z,32.43
2019-02-06T01:33:10.155Z,29.53
2019-02-06T01:36:13.597Z,32.53
2019-02-06T01:39:17.320Z,30.07
2019-02-06T01:42:20.727Z,31.27
2019-02-06T01:45:24.180Z,29.27
2019-02-06T01:48:27.593Z,28.70
2019-02-06T01:51:31.051Z,30.67
2019-02-06T01:54:34.466Z,29.17
2019-02-06T01:57:37.908Z,29.33
2019-02-06T02:00:41.392Z,30.83
2019-02-06T02:03:44.908Z,27.47
2019-02-06T02:06:48.320Z,28.93
2019-02-06T02:09:51.836Z,29.83
2019-02-06T02:12:55.256Z,28.53
2019-02-06T02:15:58.698Z,27.70
2019-02-06T02:19:02.131Z,25.83
2019-02-06T02:22:05.553Z,28.33
2019-02-06T02:25:09.436Z,35.07
2019-02-06T02:28:12.850Z,28.57
2019-02-06T02:31:16.298Z,28.33
2019-02-06T02:34:19.715Z,27.77
2019-02-06T02:37:23.166Z,30.77
2019-02-06T02:40:26.584Z,36.40
2019-02-06T02:43:30.109Z,33.57
2019-02-06T02:46:33.525Z,27.93
2019-02-06T02:49:36.969Z,27.27
2019-02-06T02:52:40.389Z,28.70
2019-02-06T02:55:43.845Z,32.57
2019-02-06T02:58:47.262Z,38.97
2019-02-06T03:01:52.343Z,29.00
2019-02-06T03:04:57.233Z,27.87
2019-02-06T03:08:00.680Z,29.87
2019-02-06T03:11:04.369Z,27.87
2019-02-06T03:14:07.819Z,26.53
2019-02-06T03:17:11.232Z,30.77
2019-02-06T03:20:15.013Z,30.17
2019-02-06T03:23:18.427Z,28.13
2019-02-06T03:26:22.162Z,31.40
2019-02-06T03:29:25.614Z,31.77
2019-02-06T03:32:29.086Z,27.10
2019-02-06T03:35:32.804Z,32.63
2019-02-06T03:38:36.227Z,37.50
2019-02-06T03:41:39.689Z,32.37
2019-02-06T03:44:43.394Z,32.17
2019-02-06T03:47:46.857Z,29.63
2019-02-06T03:50:50.284Z,30.77
2019-02-06T03:53:54.677Z,30.53
2019-02-06T03:56:58.100Z,26.80
2019-02-06T04:00:01.577Z,29.70
2019-02-06T04:03:05.351Z,29.77
2019-02-06T04:06:08.769Z,26.20
2019-02-06T04:09:12.225Z,27.53
2019-02-06T04:12:15.647Z,29.30
2019-02-06T04:15:19.106Z,31.63
2019-02-06T04:18:22.532Z,29.37
2019-02-06T04:21:25.985Z,30.30
2019-02-06T04:24:29.404Z,25.23
2019-02-06T04:27:32.861Z,28.37
2019-02-06T04:30:36.277Z,27.07
2019-02-06T04:33:39.725Z,25.93
2019-02-06T04:36:43.176Z,29.77
2019-02-06T04:39:46.598Z,25.60
2019-02-06T04:42:50.048Z,25.80
2019-02-06T04:45:53.468Z,26.93
2019-02-06T04:48:56.916Z,25.87
2019-02-06T04:52:00.339Z,25.10
2019-02-06T04:55:05.331Z,26.57
2019-02-06T04:58:08.742Z,26.93
2019-02-06T05:01:12.189Z,27.23
2019-02-06T05:04:15.602Z,20.93
2019-02-06T05:07:19.775Z,27.23
2019-02-06T05:10:23.256Z,25.07
2019-02-06T05:13:26.696Z,26.07
2019-02-06T05:16:30.117Z,25.20
2019-02-06T05:19:33.568Z,25.93
2019-02-06T05:22:39.935Z,27.57
2019-02-06T05:25:43.376Z,26.03
2019-02-06T05:28:46.801Z,27.60
2019-02-06T05:31:50.417Z,26.73
2019-02-06T05:34:53.836Z,29.33
2019-02-06T05:37:57.305Z,30.10
2019-02-06T05:41:01.107Z,28.80
2019-02-06T05:44:04.602Z,28.33
2019-02-06T05:47:08.018Z,32.53
2019-02-06T05:50:15.085Z,27.13
2019-02-06T05:53:18.514Z,29.80
2019-02-06T05:56:21.975Z,28.13
2019-02-06T05:59:25.385Z,27.83
2019-02-06T06:02:28.838Z,27.13
2019-02-06T06:05:32.256Z,29.77
2019-02-06T06:08:35.712Z,25.50
2019-02-06T06:11:39.156Z,26.93
2019-02-06T06:14:42.659Z,27.47
2019-02-06T06:17:46.073Z,28.67
2019-02-06T06:20:49.518Z,28.03
2019-02-06T06:23:52.935Z,27.57
2019-02-06T06:26:56.380Z,28.20
2019-02-06T06:29:59.812Z,29.43
2019-02-06T06:33:03.273Z,28.43
2019-02-06T06:36:06.703Z,25.73
2019-02-06T06:39:10.139Z,25.83
2019-02-06T06:42:13.937Z,29.03
2019-02-06T06:45:19.436Z,29.37
2019-02-06T06:48:22.934Z,27.90
2019-02-06T06:51:26.565Z,28.60
2019-02-06T06:54:29.986Z,27.90
2019-02-06T06:57:33.424Z,28.40
2019-02-06T07:00:37.232Z,27.10
2019-02-06T07:03:40.696Z,29.00
2019-02-06T07:06:46.337Z,29.53
2019-02-06T07:09:49.369Z,29.50
2019-02-06T07:12:52.923Z,26.90
2019-02-06T07:15:56.377Z,30.80
2019-02-06T07:19:00.072Z,34.23
2019-02-06T07:22:03.504Z,27.53
2019-02-06T07:25:08.967Z,30.53
2019-02-06T07:28:12.817Z,31.10
2019-02-06T07:31:16.245Z,27.63
2019-02-06T07:34:19.660Z,25.70
2019-02-06T07:37:23.408Z,25.60
2019-02-06T07:40:27.192Z,25.47
2019-02-06T07:43:30.628Z,27.60
2019-02-06T07:46:34.040Z,24.53
2019-02-06T07:49:37.473Z,24.20
2019-02-06T07:52:41.437Z,26.70
2019-02-06T07:55:44.850Z,22.93
2019-02-06T07:58:50.668Z,25.13
2019-02-06T08:01:53.504Z,23.20
2019-02-06T08:04:56.961Z,20.43
2019-02-06T08:08:00.535Z,23.23
2019-02-06T08:11:03.996Z,24.93
2019-02-06T08:14:07.468Z,22.50
2019-02-06T08:17:10.885Z,20.97
2019-02-06T08:20:17.016Z,21.97
2019-02-06T08:23:20.486Z,19.70
2019-02-06T08:26:23.929Z,18.97
2019-02-06T08:29:27.413Z,19.50
2019-02-06T08:32:31.548Z,17.37
2019-02-06T08:35:34.976Z,19.13
2019-02-06T08:38:47.355Z,20.10
2019-02-06T08:41:43.662Z,19.63
2019-02-06T08:44:47.105Z,18.97
2019-02-06T08:47:50.529Z,19.87
2019-02-06T08:50:53.975Z,19.10
2019-02-06T08:53:57.565Z,19.97
2019-02-06T08:57:00.982Z,21.57
2019-02-06T09:00:07.630Z,20.13
2019-02-06T09:03:11.476Z,19.27
2019-02-06T09:06:14.912Z,17.83
2019-02-06T09:09:18.362Z,19.07
2019-02-06T09:12:21.814Z,18.13
2019-02-06T09:15:27.372Z,18.10
2019-02-06T09:18:30.454Z,19.13
2019-02-06T09:21:33.869Z,21.63
2019-02-06T09:24:37.337Z,20.73
2019-02-06T09:27:40.782Z,19.83
2019-02-06T09:30:44.238Z,20.10
2019-02-06T09:33:47.676Z,20.80
2019-02-06T09:36:51.117Z,19.87
2019-02-06T09:39:54.561Z,18.40
2019-02-06T09:42:58.044Z,22.20
2019-02-06T09:46:01.490Z,20.80
2019-02-06T09:49:04.907Z,18.10
2019-02-06T09:52:08.621Z,18.73
2019-02-06T09:55:12.197Z,20.23
2019-02-06T09:58:15.641Z,20.97
2019-02-06T10:01:21.347Z,20.83
2019-02-06T10:04:24.600Z,20.07
2019-02-06T10:07:28.089Z,21.57
2019-02-06T10:10:31.904Z,20.50
2019-02-06T10:13:35.358Z,21.37
2019-02-06T10:16:38.776Z,20.07
2019-02-06T10:19:42.659Z,20.80
2019-02-06T10:22:46.309Z,19.83
2019-02-06T10:25:49.738Z,18.77
2019-02-06T10:28:53.185Z,22.37
2019-02-06T10:31:56.605Z,22.37
2019-02-06T10:35:00.051Z,18.97
2019-02-06T10:38:06.288Z,19.87
2019-02-06T10:41:09.737Z,19.70
2019-02-06T10:44:13.189Z,21.57
2019-02-06T10:47:16.597Z,17.87
2019-02-06T10:50:22.279Z,17.90
2019-02-06T10:53:25.702Z,18.27
2019-02-06T10:56:29.143Z,19.10
2019-02-06T10:59:32.601Z,19.67
2019-02-06T11:02:36.017Z,18.83
2019-02-06T11:05:39.536Z,17.37
2019-02-06T11:08:43.240Z,20.17
2019-02-06T11:11:49.548Z,19.27
2019-02-06T11:14:53.005Z,20.30
2019-02-06T11:17:56.512Z,20.40
2019-02-06T11:20:59.926Z,20.73
2019-02-06T11:24:03.351Z,20.17
2019-02-06T11:27:06.789Z,20.53
2019-02-06T11:30:19.108Z,20.50
2019-02-06T11:33:23.092Z,17.17
2019-02-06T11:36:26.524Z,18.90
2019-02-06T11:39:29.979Z,20.10
2019-02-06T11:42:33.892Z,20.33
2019-02-06T11:45:37.386Z,19.90
2019-02-06T11:48:43.309Z,22.93
2019-02-06T11:51:46.056Z,20.37
2019-02-06T11:54:49.472Z,19.90
2019-02-06T11:57:52.917Z,22.27
2019-02-06T12:00:57.990Z,21.27
2019-02-06T12:04:01.402Z,23.07
2019-02-06T12:07:05.109Z,23.53
2019-02-06T12:10:14.129Z,19.73
2019-02-06T12:13:17.569Z,25.13
2019-02-06T12:16:21.150Z,26.17
2019-02-06T12:19:25.024Z,22.23
2019-02-06T12:22:28.440Z,19.93
2019-02-06T12:25:34.337Z,20.57
2019-02-06T12:28:37.028Z,19.00
2019-02-06T12:31:40.473Z,21.83
2019-02-06T12:34:43.880Z,19.73
2019-02-06T12:37:47.321Z,19.63
2019-02-06T12:40:50.771Z,18.27
2019-02-06T12:43:54.257Z,20.60
2019-02-06T12:46:57.702Z,19.07
2019-02-06T12:50:01.116Z,20.20
2019-02-06T12:53:05.371Z,19.30
2019-02-06T12:56:08.818Z,21.00
2019-02-06T12:59:12.269Z,17.80
2019-02-06T13:02:16.074Z,19.73
2019-02-06T13:05:19.580Z,19.53
2019-02-06T13:08:23.014Z,21.13
2019-02-06T13:11:26.463Z,19.97
2019-02-06T13:14:29.879Z,18.93
2019-02-06T13:17:34.152Z,17.80
2019-02-06T13:20:37.605Z,21.00
2019-02-06T13:23:41.023Z,17.73
2019-02-06T13:26:52.480Z,18.83
2019-02-06T13:29:56.304Z,15.93
2019-02-06T13:32:59.816Z,19.67
2019-02-06T13:36:05.253Z,18.70
2019-02-06T13:39:10.716Z,17.33
2019-02-06T13:42:14.136Z,17.17
2019-02-06T13:45:20.705Z,15.50
2019-02-06T13:48:24.627Z,20.97
2019-02-06T13:51:28.081Z,17.07
2019-02-06T13:54:31.515Z,18.33
2019-02-06T13:57:35.412Z,17.77
2019-02-06T14:00:41.389Z,16.07
2019-02-06T14:03:45.009Z,17.97
2019-02-06T14:06:48.493Z,16.97
2019-02-06T14:09:51.934Z,17.03
2019-02-06T14:12:55.414Z,15.30
2019-02-06T14:15:59.143Z,15.60
2019-02-06T14:19:02.628Z,16.73
2019-02-06T14:22:06.073Z,15.47
2019-02-06T14:25:18.745Z,14.87
2019-02-06T14:28:44.529Z,22.83
2019-02-06T14:32:03.584Z,15.07
2019-02-06T14:35:28.088Z,16.80
2019-02-06T14:38:43.489Z,15.47
2019-02-06T14:42:09.553Z,20.90
2019-02-06T14:45:46.188Z,12.83
2019-02-06T14:49:16.541Z,15.60
2019-02-06T14:52:31.867Z,14.73
2019-02-06T14:55:38.385Z,15.73
2019-02-06T14:58:47.589Z,15.37
2019-02-06T15:02:00.039Z,19.67
2019-02-06T15:05:33.208Z,17.57
2019-02-06T15:08:45.906Z,17.37
2019-02-06T15:11:57.648Z,17.33
2019-02-06T15:15:26.569Z,14.97
2019-02-06T15:18:41.764Z,16.33
2019-02-06T15:22:02.920Z,15.63
2019-02-06T15:25:24.564Z,14.67
2019-02-06T15:28:47.750Z,14.37
2019-02-06T15:32:00.176Z,14.77
2019-02-06T15:35:09.777Z,16.50
2019-02-06T15:38:25.049Z,18.53
2019-02-06T15:41:48.253Z,17.23
2019-02-06T15:45:03.494Z,16.57
2019-02-06T15:48:38.915Z,15.57
2019-02-06T15:52:14.121Z,15.60
2019-02-06T15:55:38.439Z,15.93
2019-02-06T15:58:56.344Z,13.67
2019-02-06T16:02:08.703Z,23.27
2019-02-06T16:05:22.275Z,13.93
2019-02-06T16:08:31.302Z,15.17
2019-02-06T16:11:42.481Z,16.93
2019-02-06T16:14:48.905Z,17.30
2019-02-06T16:17:58.280Z,18.90
2019-02-06T16:21:16.605Z,15.57
2019-02-06T16:24:29.316Z,15.30
2019-02-06T16:28:11.649Z,13.83
2019-02-06T16:31:33.686Z,13.70
2019-02-06T16:34:55.034Z,14.80
2019-02-06T16:38:13.540Z,18.23
2019-02-06T16:41:36.524Z,15.13
2019-02-06T16:44:48.800Z,16.07
2019-02-06T16:48:01.076Z,14.50
2019-02-06T16:51:19.013Z,14.53
2019-02-06T16:54:34.019Z,13.93
2019-02-06T16:57:40.984Z,19.00
2019-02-06T17:01:10.360Z,15.63
2019-02-06T17:04:31.077Z,14.57
2019-02-06T17:07:43.600Z,17.53
2019-02-06T17:11:05.254Z,16.20
2019-02-06T17:14:26.067Z,14.50
2019-02-06T17:17:37.580Z,17.60
2019-02-06T17:20:55.925Z,17.40
2019-02-06T17:24:11.612Z,15.23
2019-02-06T17:27:33.173Z,15.90
2019-02-06T17:30:42.390Z,13.23
2019-02-06T17:34:11.045Z,15.10
2019-02-06T17:37:40.081Z,13.50
2019-02-06T17:41:13.769Z,16.83
2019-02-06T17:44:20.304Z,15.40
2019-02-06T17:47:26.840Z,14.20
2019-02-06T17:50:49.800Z,24.53
2019-02-06T17:53:56.286Z,15.77
2019-02-06T17:56:59.730Z,13.93
2019-02-06T18:00:04.758Z,15.47
2019-02-06T18:03:11.744Z,14.73
2019-02-06T18:06:16.502Z,16.73
2019-02-06T18:09:19.949Z,15.93
2019-02-06T18:12:26.765Z,17.27
2019-02-06T18:15:28.597Z,18.77
2019-02-06T18:18:32.016Z,16.33
2019-02-06T18:21:35.465Z,17.87
2019-02-06T18:24:38.910Z,17.77
2019-02-06T18:27:43.594Z,17.37
2019-02-06T18:30:47.013Z,14.80
2019-02-06T18:33:50.528Z,15.53
2019-02-06T18:36:53.981Z,15.03
2019-02-06T18:39:57.472Z,20.07
2019-02-06T18:43:02.020Z,15.40
2019-02-06T18:46:05.690Z,17.17
2019-02-06T18:49:09.543Z,17.87
2019-02-06T18:52:20.166Z,16.80
2019-02-06T18:55:21.177Z,15.80
2019-02-06T18:58:23.556Z,16.53
2019-02-06T19:01:27.094Z,18.20
2019-02-06T19:04:30.559Z,18.50
2019-02-06T19:07:34.069Z,19.80
2019-02-06T19:10:37.709Z,17.47
2019-02-06T19:13:41.620Z,16.03
2019-02-06T19:16:45.105Z,18.57
2019-02-06T19:19:48.553Z,17.30
2019-02-06T19:22:51.997Z,18.53
2019-02-06T19:25:55.420Z,18.30
2019-02-06T19:28:58.934Z,18.30
2019-02-06T19:32:02.381Z,17.30
2019-02-06T19:35:08.841Z,17.70
2019-02-06T19:38:12.357Z,20.37
2019-02-06T19:41:15.810Z,21.07
2019-02-06T19:44:19.225Z,21.33
2019-02-06T19:47:23.153Z,19.93
2019-02-06T19:50:32.031Z,18.43
2019-02-06T19:53:35.548Z,22.73
2019-02-06T19:56:39.340Z,19.27
2019-02-06T19:59:42.804Z,19.13
2019-02-06T20:02:46.218Z,20.33
2019-02-06T20:05:49.657Z,20.43
2019-02-06T20:08:53.082Z,18.47
2019-02-06T20:11:56.525Z,17.70
2019-02-06T20:15:00.033Z,19.27
2019-02-06T20:18:03.640Z,19.83
2019-02-06T20:21:07.491Z,20.90
2019-02-06T20:24:10.941Z,19.67
2019-02-06T20:27:14.421Z,18.63
2019-02-06T20:30:20.865Z,21.13
2019-02-06T20:33:24.352Z,18.50
2019-02-06T20:36:27.769Z,20.47
2019-02-06T20:39:31.207Z,18.07
2019-02-06T20:42:34.664Z,21.00
2019-02-06T20:45:38.100Z,21.00
2019-02-06T20:48:41.725Z,18.43
2019-02-06T20:51:45.141Z,19.13
2019-02-06T20:54:48.664Z,17.53
2019-02-06T20:57:52.097Z,17.47
2019-02-06T21:00:55.569Z,20.83
2019-02-06T21:03:59.359Z,18.77
2019-02-06T21:07:02.797Z,20.63
2019-02-06T21:10:09.309Z,18.90
2019-02-06T21:13:13.101Z,22.30
2019-02-06T21:16:16.541Z,20.63
2019-02-06T21:19:20.880Z,22.03
2019-02-06T21:22:24.808Z,24.10
2019-02-06T21:25:28.228Z,21.80
2019-02-06T21:28:31.673Z,21.93
2019-02-06T21:31:35.160Z,20.43
2019-02-06T21:34:38.611Z,23.17
2019-02-06T21:37:42.092Z,20.17
2019-02-06T21:40:45.557Z,22.33
2019-02-06T21:43:48.978Z,24.47
2019-02-06T21:46:52.429Z,25.50
2019-02-06T21:49:55.853Z,25.17
2019-02-06T21:52:59.296Z,23.70
2019-02-06T21:56:02.728Z,25.87
2019-02-06T21:59:06.185Z,23.77
2019-02-06T22:02:09.608Z,22.77
2019-02-06T22:05:14.402Z,22.50
2019-02-06T22:08:17.888Z,23.77
2019-02-06T22:11:21.335Z,24.87
2019-02-06T22:14:24.749Z,23.93
2019-02-06T22:17:28.189Z,21.77
2019-02-06T22:20:31.744Z,24.80
2019-02-06T22:23:35.193Z,24.17
2019-02-06T22:26:38.609Z,21.50
2019-02-06T22:29:42.057Z,21.60
2019-02-06T22:32:45.476Z,21.30
2019-02-06T22:35:48.937Z,22.27
2019-02-06T22:38:52.628Z,20.60
2019-02-06T22:41:56.073Z,20.83
2019-02-06T22:44:59.496Z,21.77
2019-02-06T22:48:02.929Z,24.93
2019-02-06T22:51:06.349Z,23.53
2019-02-06T22:54:09.793Z,22.80
2019-02-06T22:57:13.223Z,23.13
2019-02-06T23:00:39.523Z,23.33
2019-02-06T23:03:43.004Z,23.27
2019-02-06T23:06:46.448Z,22.37
2019-02-06T23:09:49.869Z,24.83
2019-02-06T23:12:53.316Z,21.40
2019-02-06T23:15:56.738Z,22.63
2019-02-06T23:19:00.183Z,22.33
2019-02-06T23:22:03.972Z,21.43
2019-02-06T23:25:08.344Z,22.47
2019-02-06T23:28:11.786Z,23.30
2019-02-06T23:31:15.198Z,21.70
2019-02-06T23:34:27.070Z,23.60
2019-02-06T23:37:30.485Z,22.17
2019-02-06T23:40:34.022Z,24.90
2019-02-06T23:43:37.804Z,20.83
2019-02-06T23:46:41.249Z,24.77
2019-02-06T23:49:44.671Z,22.27
2019-02-06T23:52:48.400Z,22.73
2019-02-06T23:55:51.816Z,24.67
2019-02-06T23:58:55.266Z,27.23
